createdAt,value
2019-03-01T00:01:56.071Z,28.95
2019-03-01T00:04:54.149Z,27.73
2019-03-01T00:08:15.305Z,26.62
2019-03-01T00:11:29.439Z,23.10
2019-03-01T00:14:56.720Z,25.82
2019-03-01T00:17:58.559Z,24.35
2019-03-01T00:21:15.271Z,21.52
2019-03-01T00:24:12.836Z,18.30
2019-03-01T00:27:10.496Z,22.35
2019-03-01T00:29:58.208Z,25.30
2019-03-01T00:33:16.412Z,22.07
2019-03-01T00:36:46.602Z,18.48
2019-03-01T00:39:52.139Z,15.72
2019-03-01T00:42:52.008Z,15.95
2019-03-01T00:45:23.537Z,16.87
2019-03-01T00:47:55.403Z,17.05
2019-03-01T00:50:26.710Z,15.63
2019-03-01T00:52:58.037Z,23.32
2019-03-01T00:55:29.736Z,15.45
2019-03-01T00:58:01.027Z,22.40
2019-03-01T01:00:36.898Z,19.23
2019-03-01T01:03:08.352Z,18.95
2019-03-01T01:05:40.053Z,20.68
2019-03-01T01:08:11.466Z,13.95
2019-03-01T01:10:43.293Z,17.00
2019-03-01T01:13:14.900Z,12.28
2019-03-01T01:15:46.626Z,17.17
2019-03-01T01:18:18.329Z,15.43
2019-03-01T01:20:50.078Z,14.15
2019-03-01T01:23:21.449Z,15.25
2019-03-01T01:25:52.766Z,12.73
2019-03-01T01:28:24.295Z,14.07
2019-03-01T01:30:55.798Z,13.68
2019-03-01T01:33:27.361Z,16.57
2019-03-01T01:35:58.844Z,12.63
2019-03-01T01:38:30.328Z,16.15
2019-03-01T01:41:01.967Z,12.65
2019-03-01T01:43:33.527Z,13.03
2019-03-01T01:46:05.126Z,12.05
2019-03-01T01:48:36.873Z,11.60
2019-03-01T01:51:08.513Z,10.95
2019-03-01T01:53:40.040Z,14.50
2019-03-01T01:56:12.106Z,12.45
2019-03-01T01:58:43.770Z,15.15
2019-03-01T02:01:15.561Z,13.05
2019-03-01T02:03:47.299Z,11.73
2019-03-01T02:06:18.973Z,14.65
2019-03-01T02:08:50.354Z,13.13
2019-03-01T02:11:21.946Z,14.40
2019-03-01T02:13:53.725Z,16.40
2019-03-01T02:16:25.444Z,12.90
2019-03-01T02:18:57.974Z,13.15
2019-03-01T02:21:29.807Z,11.93
2019-03-01T02:24:01.424Z,17.80
2019-03-01T02:26:32.884Z,19.37
2019-03-01T02:29:05.701Z,16.80
2019-03-01T02:31:37.834Z,16.52
2019-03-01T02:34:09.205Z,13.03
2019-03-01T02:36:40.844Z,17.52
2019-03-01T02:39:12.482Z,15.50
2019-03-01T02:41:43.942Z,13.22
2019-03-01T02:44:15.244Z,12.30
2019-03-01T02:46:47.055Z,15.10
2019-03-01T02:49:18.918Z,14.40
2019-03-01T02:51:50.701Z,15.32
2019-03-01T02:54:22.393Z,16.37
2019-03-01T02:56:53.807Z,19.37
2019-03-01T02:59:25.154Z,18.75
2019-03-01T03:01:56.900Z,17.73
2019-03-01T03:04:29.264Z,15.45
2019-03-01T03:07:11.299Z,17.75
2019-03-01T03:09:42.941Z,18.27
2019-03-01T03:12:14.374Z,18.25
2019-03-01T03:14:46.021Z,20.10
2019-03-01T03:17:18.723Z,26.60
2019-03-01T03:19:50.259Z,20.25
2019-03-01T03:22:21.791Z,20.88
2019-03-01T03:24:53.166Z,18.57
2019-03-01T03:27:24.719Z,16.82
2019-03-01T03:29:56.491Z,16.77
2019-03-01T03:32:27.920Z,18.80
2019-03-01T03:34:59.566Z,17.42
2019-03-01T03:37:31.356Z,19.02
2019-03-01T03:40:03.101Z,12.53
2019-03-01T03:42:34.864Z,16.50
2019-03-01T03:45:07.126Z,20.12
2019-03-01T03:47:38.633Z,18.25
2019-03-01T03:50:11.463Z,16.05
2019-03-01T03:52:43.381Z,19.37
2019-03-01T03:55:15.595Z,16.97
2019-03-01T03:57:48.106Z,14.98
2019-03-01T04:00:20.438Z,15.03
2019-03-01T04:02:52.187Z,13.88
2019-03-01T04:05:23.943Z,18.80
2019-03-01T04:07:55.232Z,18.52
2019-03-01T04:10:26.880Z,19.70
2019-03-01T04:12:58.321Z,16.95
2019-03-01T04:15:30.240Z,16.90
2019-03-01T04:18:01.927Z,14.68
2019-03-01T04:20:33.650Z,15.93
2019-03-01T04:23:05.134Z,18.02
2019-03-01T04:25:36.555Z,13.25
2019-03-01T04:28:08.405Z,14.58
2019-03-01T04:30:39.818Z,16.12
2019-03-01T04:33:11.552Z,12.90
2019-03-01T04:35:43.176Z,15.38
2019-03-01T04:38:14.461Z,17.98
2019-03-01T04:40:46.100Z,17.77
2019-03-01T04:43:17.803Z,16.27
2019-03-01T04:45:49.551Z,14.40
2019-03-01T04:48:20.877Z,14.47
2019-03-01T04:50:52.539Z,13.62
2019-03-01T04:53:23.917Z,12.88
2019-03-01T04:55:55.344Z,22.30
2019-03-01T04:58:26.754Z,20.40
2019-03-01T05:00:58.549Z,12.40
2019-03-01T05:03:29.889Z,14.75
2019-03-01T05:06:02.364Z,14.20
2019-03-01T05:08:34.005Z,13.50
2019-03-01T05:11:05.797Z,14.07
2019-03-01T05:13:37.292Z,18.85
2019-03-01T05:16:08.792Z,16.87
2019-03-01T05:18:40.308Z,19.07
2019-03-01T05:21:11.970Z,22.58
2019-03-01T05:23:43.406Z,16.55
2019-03-01T05:26:15.239Z,11.78
2019-03-01T05:28:46.628Z,16.27
2019-03-01T05:31:18.130Z,19.70
2019-03-01T05:33:49.507Z,16.82
2019-03-01T05:36:21.039Z,19.00
2019-03-01T05:38:52.587Z,23.05
2019-03-01T05:41:24.210Z,24.57
2019-03-01T05:43:55.522Z,29.77
2019-03-01T05:46:26.795Z,27.45
2019-03-01T05:48:58.462Z,24.70
2019-03-01T05:51:30.118Z,21.60
2019-03-01T05:54:01.769Z,18.65
2019-03-01T05:56:33.415Z,19.55
2019-03-01T05:59:20.290Z,15.65
2019-03-01T06:02:22.003Z,19.23
2019-03-01T06:04:56.876Z,21.48
2019-03-01T06:08:08.665Z,18.10
2019-03-01T06:11:10.590Z,25.08
2019-03-01T06:14:12.666Z,24.13
2019-03-01T06:17:19.232Z,16.53
2019-03-01T06:20:43.199Z,16.47
2019-03-01T06:23:32.475Z,16.30
2019-03-01T06:26:36.499Z,18.27
2019-03-01T06:29:50.969Z,17.07
2019-03-01T06:32:56.824Z,15.20
2019-03-01T06:35:57.145Z,17.30
2019-03-01T06:39:37.717Z,17.70
2019-03-01T06:42:54.316Z,16.33
2019-03-01T06:46:02.357Z,17.07
2019-03-01T06:48:45.565Z,21.30
2019-03-01T06:51:29.410Z,19.97
2019-03-01T06:54:00.962Z,16.03
2019-03-01T06:56:32.288Z,13.90
2019-03-01T06:59:05.596Z,16.13
2019-03-01T07:01:42.816Z,19.43
2019-03-01T07:04:22.900Z,19.33
2019-03-01T07:06:54.319Z,16.77
2019-03-01T07:09:25.718Z,17.97
2019-03-01T07:11:56.798Z,17.97
2019-03-01T07:14:28.033Z,19.03
2019-03-01T07:16:59.079Z,23.30
2019-03-01T07:19:32.435Z,19.37
2019-03-01T07:22:03.563Z,25.57
2019-03-01T07:24:34.824Z,21.07
2019-03-01T07:27:05.950Z,18.77
2019-03-01T07:29:37.481Z,21.10
2019-03-01T07:32:08.665Z,17.27
2019-03-01T07:34:39.818Z,17.73
2019-03-01T07:37:10.978Z,19.90
2019-03-01T07:39:42.568Z,18.10
2019-03-01T07:42:14.034Z,19.97
2019-03-01T07:44:45.457Z,25.50
2019-03-01T07:47:16.601Z,17.80
2019-03-01T07:49:47.948Z,18.37
2019-03-01T07:52:19.286Z,18.53
2019-03-01T07:54:52.785Z,18.33
2019-03-01T07:57:23.975Z,16.70
2019-03-01T07:59:55.129Z,21.47
2019-03-01T08:02:26.454Z,19.23
2019-03-01T08:05:00.075Z,20.23
2019-03-01T08:07:30.906Z,20.53
2019-03-01T08:10:02.245Z,17.80
2019-03-01T08:12:34.218Z,17.67
2019-03-01T08:15:08.198Z,16.10
2019-03-01T08:17:39.235Z,18.23
2019-03-01T08:20:13.025Z,18.40
2019-03-01T08:22:49.101Z,16.37
2019-03-01T08:25:23.490Z,18.37
2019-03-01T08:27:51.807Z,18.03
2019-03-01T08:30:23.173Z,20.57
2019-03-01T08:32:54.705Z,17.80
2019-03-01T08:35:28.331Z,17.30
2019-03-01T08:37:59.597Z,20.53
2019-03-01T08:40:31.045Z,19.87
2019-03-01T08:43:02.546Z,21.57
2019-03-01T08:45:33.922Z,20.50
2019-03-01T08:48:05.598Z,21.27
2019-03-01T08:50:36.856Z,21.27
2019-03-01T08:53:11.474Z,22.93
2019-03-01T08:55:41.471Z,21.20
2019-03-01T08:58:12.941Z,20.83
2019-03-01T09:00:44.309Z,22.27
2019-03-01T09:03:24.178Z,22.63
2019-03-01T09:05:57.006Z,19.93
2019-03-01T09:08:28.068Z,21.03
2019-03-01T09:10:59.569Z,21.50
2019-03-01T09:13:30.766Z,20.67
2019-03-01T09:16:02.375Z,21.57
2019-03-01T09:18:33.986Z,21.30
2019-03-01T09:21:06.249Z,26.40
2019-03-01T09:23:39.594Z,25.40
2019-03-01T09:26:10.868Z,23.00
2019-03-01T09:28:42.151Z,23.47
2019-03-01T09:31:13.691Z,23.50
2019-03-01T09:33:45.354Z,29.20
2019-03-01T09:36:29.896Z,20.23
2019-03-01T09:39:01.256Z,27.77
2019-03-01T09:41:36.593Z,24.40
2019-03-01T09:44:07.304Z,22.80
2019-03-01T09:46:38.489Z,21.23
2019-03-01T09:49:09.876Z,23.67
2019-03-01T09:51:43.700Z,20.87
2019-03-01T09:54:15.221Z,23.97
2019-03-01T09:56:46.664Z,20.83
2019-03-01T09:59:18.356Z,23.23
2019-03-01T10:01:49.578Z,39.30
2019-03-01T10:04:20.674Z,28.13
2019-03-01T10:06:52.121Z,23.27
2019-03-01T10:09:23.565Z,26.07
2019-03-01T10:11:55.032Z,22.47
2019-03-01T10:14:26.531Z,24.60
2019-03-01T10:16:58.470Z,24.37
2019-03-01T10:19:29.708Z,25.40
2019-03-01T10:22:00.651Z,26.97
2019-03-01T10:24:31.761Z,21.73
2019-03-01T10:27:03.115Z,21.63
2019-03-01T10:29:34.177Z,22.03
2019-03-01T10:32:05.372Z,21.97
2019-03-01T10:34:36.754Z,22.57
2019-03-01T10:37:07.965Z,24.00
2019-03-01T10:39:39.140Z,22.30
2019-03-01T10:42:10.113Z,21.73
2019-03-01T10:44:41.228Z,22.93
2019-03-01T10:47:12.205Z,23.07
2019-03-01T10:49:43.480Z,26.57
2019-03-01T10:52:14.633Z,24.00
2019-03-01T10:54:46.087Z,26.73
2019-03-01T10:57:17.237Z,28.47
2019-03-01T10:59:48.335Z,25.67
2019-03-01T11:02:19.689Z,20.93
2019-03-01T11:04:51.139Z,23.67
2019-03-01T11:07:22.593Z,25.30
2019-03-01T11:09:53.898Z,24.53
2019-03-01T11:12:25.311Z,18.40
2019-03-01T11:14:56.523Z,28.47
2019-03-01T11:17:27.983Z,24.07
2019-03-01T11:19:59.089Z,23.13
2019-03-01T11:22:30.402Z,21.40
2019-03-01T11:25:01.829Z,22.90
2019-03-01T11:27:33.147Z,24.30
2019-03-01T11:30:04.686Z,24.77
2019-03-01T11:32:35.805Z,21.00
2019-03-01T11:35:07.509Z,23.43
2019-03-01T11:37:38.850Z,24.20
2019-03-01T11:40:12.434Z,21.97
2019-03-01T11:42:44.091Z,20.90
2019-03-01T11:45:15.802Z,19.50
2019-03-01T11:47:47.174Z,24.87
2019-03-01T11:50:20.383Z,23.03
2019-03-01T11:52:51.655Z,24.50
2019-03-01T11:55:23.337Z,22.17
2019-03-01T11:57:54.869Z,20.07
2019-03-01T12:00:26.241Z,24.87
2019-03-01T12:02:57.463Z,20.57
2019-03-01T12:05:28.731Z,22.80
2019-03-01T12:07:59.997Z,22.90
2019-03-01T12:10:31.665Z,21.30
2019-03-01T12:13:02.771Z,23.07
2019-03-01T12:15:34.145Z,21.70
2019-03-01T12:18:05.379Z,22.50
2019-03-01T12:20:36.674Z,19.80
2019-03-01T12:23:07.932Z,21.97
2019-03-01T12:25:39.106Z,21.00
2019-03-01T12:28:10.541Z,20.80
2019-03-01T12:30:41.714Z,20.83
2019-03-01T12:33:13.025Z,23.37
2019-03-01T12:35:45.688Z,19.83
2019-03-01T12:38:16.832Z,21.03
2019-03-01T12:40:47.973Z,19.73
2019-03-01T12:43:19.242Z,20.37
2019-03-01T12:45:50.492Z,21.27
2019-03-01T12:48:21.776Z,22.17
2019-03-01T12:50:53.008Z,22.30
2019-03-01T12:53:24.249Z,21.37
2019-03-01T12:55:55.518Z,20.13
2019-03-01T12:58:26.534Z,21.57
2019-03-01T13:00:57.684Z,20.87
2019-03-01T13:03:30.098Z,19.20
2019-03-01T13:06:03.857Z,21.67
2019-03-01T13:08:34.214Z,20.23
2019-03-01T13:11:05.129Z,18.70
2019-03-01T13:13:38.433Z,20.07
2019-03-01T13:16:08.669Z,17.03
2019-03-01T13:18:39.996Z,17.93
2019-03-01T13:21:12.957Z,17.93
2019-03-01T13:23:45.429Z,17.50
2019-03-01T13:26:16.729Z,17.30
2019-03-01T13:28:47.878Z,15.87
2019-03-01T13:31:18.913Z,16.63
2019-03-01T13:33:49.869Z,16.30
2019-03-01T13:36:21.102Z,17.03
2019-03-01T13:38:52.280Z,19.57
2019-03-01T13:41:25.275Z,22.17
2019-03-01T13:43:56.527Z,17.07
2019-03-01T13:46:30.023Z,18.37
2019-03-01T13:49:00.856Z,16.77
2019-03-01T13:51:32.247Z,16.00
2019-03-01T13:54:05.800Z,16.60
2019-03-01T13:56:36.833Z,17.10
2019-03-01T13:59:07.887Z,20.80
2019-03-01T14:01:38.973Z,18.63
2019-03-01T14:04:10.979Z,18.90
2019-03-01T14:06:42.069Z,17.50
2019-03-01T14:09:15.582Z,15.17
2019-03-01T14:11:46.778Z,14.53
2019-03-01T14:14:18.009Z,15.00
2019-03-01T14:16:49.294Z,16.90
2019-03-01T14:19:20.711Z,20.20
2019-03-01T14:21:52.049Z,17.57
2019-03-01T14:24:25.962Z,17.47
2019-03-01T14:26:58.544Z,14.50
2019-03-01T14:29:29.463Z,13.17
2019-03-01T14:32:00.821Z,16.57
2019-03-01T14:34:31.898Z,14.73
2019-03-01T14:37:02.911Z,15.27
2019-03-01T14:39:34.435Z,18.03
2019-03-01T14:42:07.217Z,18.37
2019-03-01T14:44:39.620Z,16.10
2019-03-01T14:47:10.593Z,15.67
2019-03-01T14:49:41.803Z,17.33
2019-03-01T14:52:12.883Z,19.97
2019-03-01T14:54:45.128Z,14.10
2019-03-01T14:57:30.388Z,19.00
2019-03-01T15:00:28.575Z,16.30
2019-03-01T15:03:16.507Z,14.97
2019-03-01T15:05:48.429Z,20.97
2019-03-01T15:08:19.422Z,24.10
2019-03-01T15:10:50.718Z,22.37
2019-03-01T15:13:22.051Z,26.00
2019-03-01T15:15:53.344Z,20.27
2019-03-01T15:18:25.142Z,23.00
2019-03-01T15:21:01.297Z,23.37
2019-03-01T15:23:30.183Z,20.70
2019-03-01T15:26:01.463Z,18.23
2019-03-01T15:28:32.787Z,20.73
2019-03-01T15:31:03.735Z,18.43
2019-03-01T15:33:34.821Z,21.80
2019-03-01T15:36:05.947Z,21.13
2019-03-01T15:38:36.955Z,22.20
2019-03-01T15:41:07.931Z,23.80
2019-03-01T15:43:39.389Z,24.53
2019-03-01T15:46:11.536Z,23.23
2019-03-01T15:48:43.482Z,21.23
2019-03-01T15:51:15.600Z,21.47
2019-03-01T15:53:46.889Z,20.90
2019-03-01T15:56:18.203Z,24.87
2019-03-01T15:58:49.510Z,21.33
2019-03-01T16:01:20.752Z,22.53
2019-03-01T16:03:54.106Z,21.10
2019-03-01T16:06:24.816Z,26.27
2019-03-01T16:08:56.145Z,24.43
2019-03-01T16:11:27.478Z,25.10
2019-03-01T16:13:58.704Z,20.60
2019-03-01T16:16:29.635Z,21.43
2019-03-01T16:19:00.659Z,25.63
2019-03-01T16:21:31.921Z,22.07
2019-03-01T16:24:04.988Z,21.67
2019-03-01T16:26:37.242Z,26.80
2019-03-01T16:29:08.541Z,22.90
2019-03-01T16:31:39.972Z,22.63
2019-03-01T16:34:11.271Z,26.17
2019-03-01T16:36:45.398Z,22.07
2019-03-01T16:39:16.779Z,26.50
2019-03-01T16:41:47.684Z,22.77
2019-03-01T16:44:19.727Z,25.33
2019-03-01T16:46:51.057Z,25.70
2019-03-01T16:49:23.606Z,24.50
2019-03-01T16:51:55.126Z,22.40
2019-03-01T16:54:26.410Z,20.87
2019-03-01T16:56:57.328Z,25.70
2019-03-01T16:59:28.553Z,23.77
2019-03-01T17:02:06.192Z,26.00
2019-03-01T17:04:32.169Z,25.00
2019-03-01T17:07:04.493Z,25.17
2019-03-01T17:09:35.802Z,32.23
2019-03-01T17:12:07.030Z,26.17
2019-03-01T17:14:38.751Z,23.67
2019-03-01T17:17:10.706Z,32.50
2019-03-01T17:19:41.728Z,23.70
2019-03-01T17:22:13.129Z,28.90
2019-03-01T17:24:44.407Z,30.83
2019-03-01T17:27:15.654Z,29.77
2019-03-01T17:29:46.617Z,30.17
2019-03-01T17:32:17.941Z,31.23
2019-03-01T17:34:49.197Z,29.23
2019-03-01T17:37:20.275Z,31.27
2019-03-01T17:39:53.181Z,29.13
2019-03-01T17:42:24.352Z,28.63
2019-03-01T17:44:55.577Z,28.07
2019-03-01T17:47:26.721Z,33.33
2019-03-01T17:49:57.766Z,27.13
2019-03-01T17:52:30.543Z,26.70
2019-03-01T17:55:02.794Z,26.37
2019-03-01T17:57:34.178Z,25.23
2019-03-01T18:00:08.997Z,35.27
2019-03-01T18:02:40.453Z,29.87
2019-03-01T18:05:13.008Z,27.57
2019-03-01T18:07:44.213Z,39.90
2019-03-01T18:10:16.076Z,33.23
2019-03-01T18:12:46.954Z,37.00
2019-03-01T18:15:18.471Z,32.70
2019-03-01T18:17:49.742Z,41.47
2019-03-01T18:20:20.963Z,42.27
2019-03-01T18:22:52.199Z,34.93
2019-03-01T18:25:26.224Z,37.73
2019-03-01T18:27:56.571Z,38.27
2019-03-01T18:30:29.910Z,35.90
2019-03-01T18:33:00.578Z,46.07
2019-03-01T18:35:32.231Z,40.33
2019-03-01T18:38:04.079Z,39.40
2019-03-01T18:40:35.742Z,33.18
2019-03-01T18:43:09.729Z,34.58
2019-03-01T18:45:41.985Z,30.55
2019-03-01T18:48:13.359Z,34.67
2019-03-01T18:50:44.419Z,33.83
2019-03-01T18:53:15.570Z,34.40
2019-03-01T18:55:49.599Z,33.20
2019-03-01T18:58:20.067Z,31.10
2019-03-01T19:00:51.508Z,34.57
2019-03-01T19:03:22.878Z,30.67
2019-03-01T19:05:54.048Z,40.27
2019-03-01T19:08:26.093Z,31.50
2019-03-01T19:10:59.767Z,36.75
2019-03-01T19:13:30.185Z,33.40
2019-03-01T19:16:01.774Z,37.67
2019-03-01T19:18:33.030Z,36.20
2019-03-01T19:21:04.730Z,38.15
2019-03-01T19:23:37.584Z,38.95
2019-03-01T19:26:08.942Z,40.33
2019-03-01T19:28:40.676Z,33.48
2019-03-01T19:31:12.274Z,34.58
2019-03-01T19:33:43.638Z,31.45
2019-03-01T19:36:14.912Z,35.90
2019-03-01T19:38:46.508Z,31.55
2019-03-01T19:41:20.045Z,31.27
2019-03-01T19:43:57.399Z,31.65
2019-03-01T19:46:26.588Z,32.00
2019-03-01T19:48:58.092Z,35.38
2019-03-01T19:51:29.641Z,27.07
2019-03-01T19:54:02.108Z,32.48
2019-03-01T19:56:33.446Z,33.53
2019-03-01T19:59:04.966Z,29.15
2019-03-01T20:01:36.388Z,27.95
2019-03-01T20:04:08.057Z,28.30
2019-03-01T20:06:39.847Z,28.42
2019-03-01T20:09:13.221Z,30.80
2019-03-01T20:11:44.554Z,25.17
2019-03-01T20:14:16.920Z,31.12
2019-03-01T20:16:48.373Z,27.55
2019-03-01T20:19:20.870Z,27.05
2019-03-01T20:21:52.878Z,24.17
2019-03-01T20:24:24.502Z,25.55
2019-03-01T20:26:56.672Z,28.33
2019-03-01T20:29:27.963Z,26.83
2019-03-01T20:31:59.211Z,25.50
2019-03-01T20:34:31.278Z,27.27
2019-03-01T20:37:02.478Z,28.10
2019-03-01T20:39:33.767Z,32.00
2019-03-01T20:42:05.093Z,27.75
2019-03-01T20:44:36.260Z,33.07
2019-03-01T20:47:07.569Z,31.47
2019-03-01T20:49:39.425Z,29.30
2019-03-01T20:52:11.774Z,27.93
2019-03-01T20:54:43.408Z,26.07
2019-03-01T20:57:14.340Z,28.10
2019-03-01T20:59:46.848Z,33.10
2019-03-01T21:02:17.869Z,49.27
2019-03-01T21:04:53.324Z,47.55
2019-03-01T21:07:22.980Z,49.00
2019-03-01T21:09:54.609Z,46.00
2019-03-01T21:12:26.068Z,43.35
2019-03-01T21:14:58.692Z,41.13
2019-03-01T21:17:30.237Z,42.23
2019-03-01T21:20:01.623Z,38.63
2019-03-01T21:22:33.148Z,38.20
2019-03-01T21:25:05.056Z,36.17
2019-03-01T21:27:36.365Z,32.30
2019-03-01T21:30:11.337Z,35.75
2019-03-01T21:32:42.743Z,39.10
2019-03-01T21:35:16.679Z,34.30
2019-03-01T21:37:47.383Z,28.47
2019-03-01T21:40:19.895Z,27.32
2019-03-01T21:42:52.932Z,29.52
2019-03-01T21:45:24.433Z,32.58
2019-03-01T21:47:55.831Z,31.33
2019-03-01T21:50:27.491Z,32.45
2019-03-01T21:53:01.741Z,36.17
2019-03-01T21:55:32.095Z,43.58
2019-03-01T21:58:06.645Z,39.15
2019-03-01T22:00:37.043Z,33.20
2019-03-01T22:03:08.451Z,41.20
2019-03-01T22:05:39.950Z,39.08
2019-03-01T22:08:12.994Z,41.20
2019-03-01T22:10:44.690Z,42.40
2019-03-01T22:13:16.304Z,36.60
2019-03-01T22:15:47.655Z,42.80
2019-03-01T22:18:20.434Z,32.85
2019-03-01T22:20:52.352Z,35.45
2019-03-01T22:23:23.625Z,40.35
2019-03-01T22:25:55.635Z,31.80
2019-03-01T22:28:27.553Z,37.67
2019-03-01T22:31:00.229Z,36.73
2019-03-01T22:33:32.775Z,30.60
2019-03-01T22:36:04.394Z,38.85
2019-03-01T22:38:37.625Z,34.18
2019-03-01T22:41:08.988Z,34.30
2019-03-01T22:43:40.536Z,38.98
2019-03-01T22:46:11.860Z,33.48
2019-03-01T22:48:47.007Z,30.35
2019-03-01T22:51:17.949Z,33.45
2019-03-01T22:53:49.406Z,34.30
2019-03-01T22:56:22.519Z,33.73
2019-03-01T22:58:53.844Z,33.67
2019-03-01T23:01:36.357Z,33.48
2019-03-01T23:04:08.293Z,31.68
2019-03-01T23:06:39.653Z,31.05
2019-03-01T23:09:15.554Z,32.28
2019-03-01T23:11:47.142Z,31.12
2019-03-01T23:14:18.500Z,33.38
2019-03-01T23:16:50.661Z,32.85
2019-03-01T23:19:22.885Z,32.53
2019-03-01T23:21:54.577Z,32.85
2019-03-01T23:24:25.803Z,29.90
2019-03-01T23:26:57.791Z,29.77
2019-03-01T23:29:29.152Z,30.20
2019-03-01T23:32:00.493Z,31.20
2019-03-01T23:34:32.120Z,34.78
2019-03-01T23:37:03.638Z,31.97
2019-03-01T23:39:37.066Z,30.57
2019-03-01T23:42:08.651Z,31.10
2019-03-01T23:44:41.571Z,32.28
2019-03-01T23:47:14.172Z,28.57
2019-03-01T23:49:45.392Z,36.58
2019-03-01T23:52:19.584Z,33.55
2019-03-01T23:54:49.689Z,29.32
2019-03-01T23:57:21.451Z,37.25
2019-03-01T23:59:52.906Z,34.70
